Tim Quigg — WDB6570 — position and weather

sailwx.info

Track history (hours):
 
Tides and Currents Weather Stations Pressure Air Temp Water Temp Dewpoint Dewpoint Depression Visibility Wind Speed Wind Dir Waves Ship Positions

Tim Quigg

Owner: Harley Marine Services, Inc, Seattle, WA. More information available from US FCC via Universal Licensing System and Coast Guard Vessel Documentation Center.

Last reported at 2016-Jun-23 16:19 UTC. Time now 2016-Jun-30 08:48 UTC.
Position N 37°48' W 122°17'.

Type: Tug. MMSI: 366926740.

Date/timePositionNaut miles runAvg speedWind from/ knotsBaromVisibWave heightAir tempDewpointWater temp
2016-Jun-23 16:19N 37°48' W 122°17'0 0.0
2016-Jun-23 15:33N 37°48' W 122°17'0 0.0
2016-Jun-23 14:33N 37°48' W 122°17'0 0.0
2016-Jun-23 13:34N 37°48' W 122°17'0 0.0
2016-Jun-23 12:33N 37°48' W 122°17'0 0.0
2016-Jun-23 11:33N 37°48' W 122°17'0 0.0
2016-Jun-23 10:33N 37°48' W 122°17'0 0.0
2016-Jun-23 09:33N 37°48' W 122°17'0 0.0
2016-Jun-23 08:33N 37°48' W 122°17'0 0.0
2016-Jun-23 07:33N 37°48' W 122°17'0 0.0
2016-Jun-23 05:34N 37°48' W 122°17'1010.0
2016-Jun-23 04:32N 37°48' W 122°30'10 9.7
2016-Jun-23 03:33N 37°41' W 122°38'1010.0
2016-Jun-23 02:33N 37°31' W 122°37'10 9.8
2016-Jun-23 01:33N 37°22' W 122°32'9 9.2
2016-Jun-23 00:33N 37°14' W 122°27'9 8.7
2016-Jun-22 23:33N 37°06' W 122°23'8 8.4
2016-Jun-22 22:32N 36°58' W 122°19'8 8.3
2016-Jun-22 21:32N 36°51' W 122°14'9 8.5
2016-Jun-22 20:27N 36°42' W 122°09'8 8.4
2016-Jun-22 19:33N 36°35' W 122°07'9 8.7
2016-Jun-22 18:33N 36°27' W 122°03'8 7.7
2016-Jun-22 17:33N 36°19' W 122°01'8 7.7
2016-Jun-22 16:33N 36°13' W 121°55'7 7.5
2016-Jun-22 15:33N 36°08' W 121°48'7 7.3
2016-Jun-22 14:33N 36°02' W 121°43'8 7.8
2016-Jun-22 13:33N 35°56' W 121°37'8 8.4
2016-Jun-22 12:33N 35°49' W 121°31'18 8.9
2016-Jun-22 10:32N 35°35' W 121°18'28 9.3
2016-Jun-22 07:30N 35°11' W 120°60'9 9.8
2016-Jun-22 06:33N 35°02' W 120°56'3110.2
2016-Jun-22 03:33N 34°33' W 120°43'5310.6
2016-Jun-21 22:33N 34°13' W 119°43'1411.0
2016-Jun-21 21:14N 34°08' W 119°27'2010.7
2016-Jun-21 19:23N 34°01' W 119°05'910.5
2016-Jun-21 18:33N 33°56' W 118°55'1110.9
2016-Jun-21 17:33N 33°51' W 118°44'2210.9
2016-Jun-21 15:30N 33°42' W 118°19'4 1.8
2016-Jun-21 13:31N 33°44' W 118°16'0 0.0
2016-Jun-21 12:32N 33°44' W 118°16'0 0.0
2016-Jun-21 00:24N 33°44' W 118°16'0 0.0
2016-Jun-20 23:33N 33°44' W 118°16'0 0.0
2016-Jun-20 22:33N 33°44' W 118°16'0 0.0
2016-Jun-20 21:32N 33°44' W 118°16'0 0.0
2016-Jun-20 20:32N 33°44' W 118°16'0 0.0
2016-Jun-20 19:33N 33°44' W 118°16'0 0.0
2016-Jun-20 18:34N 33°44' W 118°16'0 0.0
2016-Jun-20 17:33N 33°44' W 118°16'0 0.1
2016-Jun-20 12:33N 33°43' W 118°16'2 2.3
2016-Jun-20 11:34N 33°46' W 118°15'2 1.8
2016-Jun-20 10:33N 33°44' W 118°16'0 0.0
2016-Jun-20 05:20N 33°44' W 118°16'0 0.1
2016-Jun-20 04:33N 33°44' W 118°16'3 3.2
2016-Jun-20 03:34N 33°44' W 118°12'1 1.5
2016-Jun-20 02:33N 33°45' W 118°12'3 3.1
2016-Jun-20 01:34N 33°44' W 118°16'1 0.8
2016-Jun-20 00:33N 33°43' W 118°16'2 2.4
2016-Jun-19 23:33N 33°45' W 118°16'2 1.6
2016-Jun-19 22:33N 33°44' W 118°16'1 0.1
2016-Jun-19 11:33N 33°43' W 118°15'1 0.9
2016-Jun-19 10:33N 33°43' W 118°14'2 0.0
2016-Jun-17 15:32N 33°44' W 118°16'2 1.9
2016-Jun-17 14:28N 33°46' W 118°16'3 3.3
2016-Jun-17 13:33N 33°43' W 118°15'1 1.3
2016-Jun-17 12:33N 33°44' W 118°16'0 0.0
2016-Jun-17 02:12N 33°44' W 118°16'1 2.2
2016-Jun-17 01:33N 33°45' W 118°16'0 0.2
2016-Jun-17 00:34N 33°45' W 118°16'0 0.4
2016-Jun-16 23:33N 33°45' W 118°16'2 1.5
2016-Jun-16 22:34N 33°44' W 118°16'0 0.1
2016-Jun-16 21:34N 33°44' W 118°16'0 0.0
2016-Jun-16 17:15N 33°44' W 118°16'1 0.5
2016-Jun-16 15:23N 33°44' W 118°17'2 2.6
2016-Jun-16 14:33N 33°46' W 118°15'1 0.6
2016-Jun-16 13:33N 33°46' W 118°16'2 2.1
2016-Jun-16 12:33N 33°46' W 118°13'3 3.1
2016-Jun-16 11:34N 33°44' W 118°11'3 2.8
2016-Jun-16 10:33N 33°43' W 118°15'1 0.1
2016-Jun-15 23:34N 33°44' W 118°16'4 3.6
2016-Jun-15 22:33N 33°44' W 118°11'1 0.5
2016-Jun-15 21:34N 33°44' W 118°11'3 3.3
2016-Jun-15 20:30N 33°43' W 118°15'1 0.1
2016-Jun-15 02:21N 33°44' W 118°16'3 3.6
2016-Jun-15 01:33N 33°45' W 118°12'2 1.7
2016-Jun-15 00:33N 33°46' W 118°13'1 0.6
2016-Jun-14 23:33N 33°46' W 118°14'0 0.4
2016-Jun-14 22:33N 33°46' W 118°13'3 0.5
2016-Jun-14 16:11N 33°44' W 118°16'1 0.5
2016-Jun-14 14:29N 33°44' W 118°17'1 0.6
2016-Jun-14 13:29N 33°44' W 118°16'0 0.3
2016-Jun-14 12:22N 33°44' W 118°17'1 0.9
2016-Jun-14 11:33N 33°45' W 118°16'1 0.9
2016-Jun-14 10:29N 33°44' W 118°16'  
Track history (hours):
 
Tides and Currents Weather Stations Pressure Air Temp Water Temp Dewpoint Dewpoint Depression Visibility Wind Speed Wind Dir Waves Ship Positions

Tim Quigg

Owner: Harley Marine Services, Inc, Seattle, WA. More information available from US FCC via Universal Licensing System and Coast Guard Vessel Documentation Center.

Last reported at 2016-Jun-23 16:19 UTC. Time now 2016-Jun-30 08:48 UTC.
Position N 37°48' W 122°17'.

Type: Tug. MMSI: 366926740.

Date/timePositionNaut miles runAvg speedWind from/ knotsBaromVisibWave heightAir tempDewpointWater temp
2016-Jun-23 16:19N 37°48' W 122°17'0 0.0
2016-Jun-23 15:33N 37°48' W 122°17'0 0.0
2016-Jun-23 14:33N 37°48' W 122°17'0 0.0
2016-Jun-23 13:34N 37°48' W 122°17'0 0.0
2016-Jun-23 12:33N 37°48' W 122°17'0 0.0
2016-Jun-23 11:33N 37°48' W 122°17'0 0.0
2016-Jun-23 10:33N 37°48' W 122°17'0 0.0
2016-Jun-23 09:33N 37°48' W 122°17'0 0.0
2016-Jun-23 08:33N 37°48' W 122°17'0 0.0
2016-Jun-23 07:33N 37°48' W 122°17'0 0.0
2016-Jun-23 05:34N 37°48' W 122°17'1010.0
2016-Jun-23 04:32N 37°48' W 122°30'10 9.7
2016-Jun-23 03:33N 37°41' W 122°38'1010.0
2016-Jun-23 02:33N 37°31' W 122°37'10 9.8
2016-Jun-23 01:33N 37°22' W 122°32'9 9.2
2016-Jun-23 00:33N 37°14' W 122°27'9 8.7
2016-Jun-22 23:33N 37°06' W 122°23'8 8.4
2016-Jun-22 22:32N 36°58' W 122°19'8 8.3
2016-Jun-22 21:32N 36°51' W 122°14'9 8.5
2016-Jun-22 20:27N 36°42' W 122°09'8 8.4
2016-Jun-22 19:33N 36°35' W 122°07'9 8.7
2016-Jun-22 18:33N 36°27' W 122°03'8 7.7
2016-Jun-22 17:33N 36°19' W 122°01'8 7.7
2016-Jun-22 16:33N 36°13' W 121°55'7 7.5
2016-Jun-22 15:33N 36°08' W 121°48'7 7.3
2016-Jun-22 14:33N 36°02' W 121°43'8 7.8
2016-Jun-22 13:33N 35°56' W 121°37'8 8.4
2016-Jun-22 12:33N 35°49' W 121°31'18 8.9
2016-Jun-22 10:32N 35°35' W 121°18'28 9.3
2016-Jun-22 07:30N 35°11' W 120°60'9 9.8
2016-Jun-22 06:33N 35°02' W 120°56'3110.2
2016-Jun-22 03:33N 34°33' W 120°43'5310.6
2016-Jun-21 22:33N 34°13' W 119°43'1411.0
2016-Jun-21 21:14N 34°08' W 119°27'2010.7
2016-Jun-21 19:23N 34°01' W 119°05'910.5
2016-Jun-21 18:33N 33°56' W 118°55'1110.9
2016-Jun-21 17:33N 33°51' W 118°44'2210.9
2016-Jun-21 15:30N 33°42' W 118°19'4 1.8
2016-Jun-21 13:31N 33°44' W 118°16'0 0.0
2016-Jun-21 12:32N 33°44' W 118°16'0 0.0
2016-Jun-21 00:24N 33°44' W 118°16'0 0.0
2016-Jun-20 23:33N 33°44' W 118°16'0 0.0
2016-Jun-20 22:33N 33°44' W 118°16'0 0.0
2016-Jun-20 21:32N 33°44' W 118°16'0 0.0
2016-Jun-20 20:32N 33°44' W 118°16'0 0.0
2016-Jun-20 19:33N 33°44' W 118°16'0 0.0
2016-Jun-20 18:34N 33°44' W 118°16'0 0.0
2016-Jun-20 17:33N 33°44' W 118°16'0 0.1
2016-Jun-20 12:33N 33°43' W 118°16'2 2.3
2016-Jun-20 11:34N 33°46' W 118°15'2 1.8
2016-Jun-20 10:33N 33°44' W 118°16'0 0.0
2016-Jun-20 05:20N 33°44' W 118°16'0 0.1
2016-Jun-20 04:33N 33°44' W 118°16'3 3.2
2016-Jun-20 03:34N 33°44' W 118°12'1 1.5
2016-Jun-20 02:33N 33°45' W 118°12'3 3.1
2016-Jun-20 01:34N 33°44' W 118°16'1 0.8
2016-Jun-20 00:33N 33°43' W 118°16'2 2.4
2016-Jun-19 23:33N 33°45' W 118°16'2 1.6
2016-Jun-19 22:33N 33°44' W 118°16'1 0.1
2016-Jun-19 11:33N 33°43' W 118°15'1 0.9
2016-Jun-19 10:33N 33°43' W 118°14'2 0.0
2016-Jun-17 15:32N 33°44' W 118°16'2 1.9
2016-Jun-17 14:28N 33°46' W 118°16'3 3.3
2016-Jun-17 13:33N 33°43' W 118°15'1 1.3
2016-Jun-17 12:33N 33°44' W 118°16'0 0.0
2016-Jun-17 02:12N 33°44' W 118°16'1 2.2
2016-Jun-17 01:33N 33°45' W 118°16'0 0.2
2016-Jun-17 00:34N 33°45' W 118°16'0 0.4
2016-Jun-16 23:33N 33°45' W 118°16'2 1.5
2016-Jun-16 22:34N 33°44' W 118°16'0 0.1
2016-Jun-16 21:34N 33°44' W 118°16'0 0.0
2016-Jun-16 17:15N 33°44' W 118°16'1 0.5
2016-Jun-16 15:23N 33°44' W 118°17'2 2.6
2016-Jun-16 14:33N 33°46' W 118°15'1 0.6
2016-Jun-16 13:33N 33°46' W 118°16'2 2.1
2016-Jun-16 12:33N 33°46' W 118°13'3 3.1
2016-Jun-16 11:34N 33°44' W 118°11'3 2.8
2016-Jun-16 10:33N 33°43' W 118°15'1 0.1
2016-Jun-15 23:34N 33°44' W 118°16'4 3.6
2016-Jun-15 22:33N 33°44' W 118°11'1 0.5
2016-Jun-15 21:34N 33°44' W 118°11'3 3.3
2016-Jun-15 20:30N 33°43' W 118°15'1 0.1
2016-Jun-15 02:21N 33°44' W 118°16'3 3.6
2016-Jun-15 01:33N 33°45' W 118°12'2 1.7
2016-Jun-15 00:33N 33°46' W 118°13'1 0.6
2016-Jun-14 23:33N 33°46' W 118°14'0 0.4
2016-Jun-14 22:33N 33°46' W 118°13'3 0.5
2016-Jun-14 16:11N 33°44' W 118°16'1 0.5
2016-Jun-14 14:29N 33°44' W 118°17'1 0.6
2016-Jun-14 13:29N 33°44' W 118°16'0 0.3
2016-Jun-14 12:22N 33°44' W 118°17'1 0.9
2016-Jun-14 11:33N 33°45' W 118°16'1 0.9
2016-Jun-14 10:29N 33°44' W 118°16'  

Dump ship's entire track history